sensor_id;sensor_type;location;lat;lon;timestamp;temperature;humidity
11242;DHT22;5678;52.370;9.006;2023-04-29T00:00:58;11.40;99.90
11242;DHT22;5678;52.370;9.006;2023-04-29T00:03:26;11.60;99.90
11242;DHT22;5678;52.370;9.006;2023-04-29T00:05:58;11.60;99.90
11242;DHT22;5678;52.370;9.006;2023-04-29T00:08:26;11.50;99.90
11242;DHT22;5678;52.370;9.006;2023-04-29T00:10:54;11.50;99.90
11242;DHT22;5678;52.370;9.006;2023-04-29T00:13:22;11.70;99.90
11242;DHT22;5678;52.370;9.006;2023-04-29T00:15:50;11.50;99.90
11242;DHT22;5678;52.370;9.006;2023-04-29T00:18:19;11.50;99.90
11242;DHT22;5678;52.370;9.006;2023-04-29T00:20:47;11.50;99.90
11242;DHT22;5678;52.370;9.006;2023-04-29T00:23:15;11.30;99.90
11242;DHT22;5678;52.370;9.006;2023-04-29T00:25:43;11.20;99.90
11242;DHT22;5678;52.370;9.006;2023-04-29T00:28:11;11.20;99.90
11242;DHT22;5678;52.370;9.006;2023-04-29T00:30:39;11.40;99.90
11242;DHT22;5678;52.370;9.006;2023-04-29T00:33:07;11.40;99.90
11242;DHT22;5678;52.370;9.006;2023-04-29T00:35:36;11.10;99.90
11242;DHT22;5678;52.370;9.006;2023-04-29T00:38:04;11.00;99.90
11242;DHT22;5678;52.370;9.006;2023-04-29T00:40:32;11.30;99.90
11242;DHT22;5678;52.370;9.006;2023-04-29T00:43:01;11.30;99.90
11242;DHT22;5678;52.370;9.006;2023-04-29T00:45:29;11.30;99.90
11242;DHT22;5678;52.370;9.006;2023-04-29T00:47:57;11.20;99.90
11242;DHT22;5678;52.370;9.006;2023-04-29T00:50:25;11.20;99.90
11242;DHT22;5678;52.370;9.006;2023-04-29T00:52:54;11.20;99.90
11242;DHT22;5678;52.370;9.006;2023-04-29T00:55:23;11.30;99.90
11242;DHT22;5678;52.370;9.006;2023-04-29T00:57:52;11.10;99.90
11242;DHT22;5678;52.370;9.006;2023-04-29T01:00:20;11.10;99.90
11242;DHT22;5678;52.370;9.006;2023-04-29T01:02:48;11.10;99.90
11242;DHT22;5678;52.370;9.006;2023-04-29T01:05:16;11.00;99.90
11242;DHT22;5678;52.370;9.006;2023-04-29T01:07:51;11.00;99.90
11242;DHT22;5678;52.370;9.006;2023-04-29T01:10:26;11.00;99.90
11242;DHT22;5678;52.370;9.006;2023-04-29T01:13:05;11.00;99.90
11242;DHT22;5678;52.370;9.006;2023-04-29T01:15:38;10.90;99.90
11242;DHT22;5678;52.370;9.006;2023-04-29T01:18:10;11.00;99.90
11242;DHT22;5678;52.370;9.006;2023-04-29T01:20:40;10.90;99.90
11242;DHT22;5678;52.370;9.006;2023-04-29T01:23:10;10.80;99.90
11242;DHT22;5678;52.370;9.006;2023-04-29T01:25:40;10.80;99.90
11242;DHT22;5678;52.370;9.006;2023-04-29T01:28:13;10.80;99.90
11242;DHT22;5678;52.370;9.006;2023-04-29T01:30:51;10.80;99.90
11242;DHT22;5678;52.370;9.006;2023-04-29T01:33:31;10.70;99.90
11242;DHT22;5678;52.370;9.006;2023-04-29T01:36:11;10.70;99.90
11242;DHT22;5678;52.370;9.006;2023-04-29T01:38:48;10.80;99.90
11242;DHT22;5678;52.370;9.006;2023-04-29T01:41:26;10.60;99.90
11242;DHT22;5678;52.370;9.006;2023-04-29T01:43:56;10.70;99.90
11242;DHT22;5678;52.370;9.006;2023-04-29T01:46:25;10.30;99.90
11242;DHT22;5678;52.370;9.006;2023-04-29T01:48:54;10.50;99.90
11242;DHT22;5678;52.370;9.006;2023-04-29T01:51:22;10.80;99.90
11242;DHT22;5678;52.370;9.006;2023-04-29T01:53:50;10.60;99.90
11242;DHT22;5678;52.370;9.006;2023-04-29T01:56:18;10.70;99.90
11242;DHT22;5678;52.370;9.006;2023-04-29T01:58:47;10.50;99.90
11242;DHT22;5678;52.370;9.006;2023-04-29T02:01:15;10.60;99.90
11242;DHT22;5678;52.370;9.006;2023-04-29T02:03:43;10.50;99.90
11242;DHT22;5678;52.370;9.006;2023-04-29T02:06:11;10.40;99.90
11242;DHT22;5678;52.370;9.006;2023-04-29T02:08:39;10.50;99.90
11242;DHT22;5678;52.370;9.006;2023-04-29T02:11:07;10.40;99.90
11242;DHT22;5678;52.370;9.006;2023-04-29T02:13:35;10.30;99.90
11242;DHT22;5678;52.370;9.006;2023-04-29T02:16:08;10.40;99.90
11242;DHT22;5678;52.370;9.006;2023-04-29T02:18:36;10.50;99.90
11242;DHT22;5678;52.370;9.006;2023-04-29T02:21:04;10.40;99.90
11242;DHT22;5678;52.370;9.006;2023-04-29T02:23:32;10.60;99.90
11242;DHT22;5678;52.370;9.006;2023-04-29T02:26:00;10.40;99.90
11242;DHT22;5678;52.370;9.006;2023-04-29T02:28:29;10.20;99.90
11242;DHT22;5678;52.370;9.006;2023-04-29T02:30:57;10.20;99.90
11242;DHT22;5678;52.370;9.006;2023-04-29T02:33:26;10.20;99.90
11242;DHT22;5678;52.370;9.006;2023-04-29T02:35:54;10.10;99.90
11242;DHT22;5678;52.370;9.006;2023-04-29T02:38:22;10.20;99.90
11242;DHT22;5678;52.370;9.006;2023-04-29T02:40:50;10.30;99.90
11242;DHT22;5678;52.370;9.006;2023-04-29T02:43:18;10.20;99.90
11242;DHT22;5678;52.370;9.006;2023-04-29T02:45:46;10.20;99.90
11242;DHT22;5678;52.370;9.006;2023-04-29T02:48:14;10.00;99.90
11242;DHT22;5678;52.370;9.006;2023-04-29T02:50:43;10.10;99.90
11242;DHT22;5678;52.370;9.006;2023-04-29T02:53:12;10.00;99.90
11242;DHT22;5678;52.370;9.006;2023-04-29T02:55:40;10.00;99.90
11242;DHT22;5678;52.370;9.006;2023-04-29T02:58:08;10.00;99.90
11242;DHT22;5678;52.370;9.006;2023-04-29T03:00:36;9.90;99.90
11242;DHT22;5678;52.370;9.006;2023-04-29T03:03:05;9.90;99.90
11242;DHT22;5678;52.370;9.006;2023-04-29T03:05:33;10.20;99.90
11242;DHT22;5678;52.370;9.006;2023-04-29T03:08:03;9.90;99.90
11242;DHT22;5678;52.370;9.006;2023-04-29T03:10:31;10.00;99.90
11242;DHT22;5678;52.370;9.006;2023-04-29T03:12:59;10.50;99.90
11242;DHT22;5678;52.370;9.006;2023-04-29T03:15:27;9.80;99.90
11242;DHT22;5678;52.370;9.006;2023-04-29T03:17:55;9.80;99.90
11242;DHT22;5678;52.370;9.006;2023-04-29T03:20:25;9.70;99.90
11242;DHT22;5678;52.370;9.006;2023-04-29T03:22:53;9.80;99.90
11242;DHT22;5678;52.370;9.006;2023-04-29T03:25:22;9.90;99.90
11242;DHT22;5678;52.370;9.006;2023-04-29T03:27:50;9.90;99.90
11242;DHT22;5678;52.370;9.006;2023-04-29T03:30:18;9.70;99.90
11242;DHT22;5678;52.370;9.006;2023-04-29T03:32:46;9.80;99.90
11242;DHT22;5678;52.370;9.006;2023-04-29T03:35:14;9.70;99.90
11242;DHT22;5678;52.370;9.006;2023-04-29T03:37:42;9.80;99.90
11242;DHT22;5678;52.370;9.006;2023-04-29T03:40:12;9.80;99.90
11242;DHT22;5678;52.370;9.006;2023-04-29T03:42:41;9.70;99.90
11242;DHT22;5678;52.370;9.006;2023-04-29T03:45:10;9.70;99.90
11242;DHT22;5678;52.370;9.006;2023-04-29T03:47:38;9.70;99.90
11242;DHT22;5678;52.370;9.006;2023-04-29T03:50:07;9.40;99.90
11242;DHT22;5678;52.370;9.006;2023-04-29T03:52:35;9.60;99.90
11242;DHT22;5678;52.370;9.006;2023-04-29T03:55:03;9.50;99.90
11242;DHT22;5678;52.370;9.006;2023-04-29T03:57:31;9.60;99.90
11242;DHT22;5678;52.370;9.006;2023-04-29T04:00:00;9.50;99.90
11242;DHT22;5678;52.370;9.006;2023-04-29T04:02:28;9.50;99.90
11242;DHT22;5678;52.370;9.006;2023-04-29T04:04:56;9.40;99.90
11242;DHT22;5678;52.370;9.006;2023-04-29T04:07:24;9.40;99.90
11242;DHT22;5678;52.370;9.006;2023-04-29T04:09:52;9.40;99.90
11242;DHT22;5678;52.370;9.006;2023-04-29T04:12:20;9.50;99.90
11242;DHT22;5678;52.370;9.006;2023-04-29T04:14:48;9.50;99.90
11242;DHT22;5678;52.370;9.006;2023-04-29T04:17:18;9.50;99.90
11242;DHT22;5678;52.370;9.006;2023-04-29T04:19:46;9.80;99.90
11242;DHT22;5678;52.370;9.006;2023-04-29T04:22:13;9.70;99.90
11242;DHT22;5678;52.370;9.006;2023-04-29T04:24:42;9.50;99.90
11242;DHT22;5678;52.370;9.006;2023-04-29T04:27:10;9.60;99.90
11242;DHT22;5678;52.370;9.006;2023-04-29T04:29:38;9.40;99.90
11242;DHT22;5678;52.370;9.006;2023-04-29T04:32:06;9.40;99.90
11242;DHT22;5678;52.370;9.006;2023-04-29T04:34:36;9.60;99.90
11242;DHT22;5678;52.370;9.006;2023-04-29T04:37:05;9.40;99.90
11242;DHT22;5678;52.370;9.006;2023-04-29T04:39:33;9.50;99.90
11242;DHT22;5678;52.370;9.006;2023-04-29T04:42:00;9.50;99.90
11242;DHT22;5678;52.370;9.006;2023-04-29T04:44:29;9.50;99.90
11242;DHT22;5678;52.370;9.006;2023-04-29T04:46:57;9.50;99.90
11242;DHT22;5678;52.370;9.006;2023-04-29T04:49:26;9.60;99.90
11242;DHT22;5678;52.370;9.006;2023-04-29T04:51:55;10.40;99.90
11242;DHT22;5678;52.370;9.006;2023-04-29T04:54:23;9.70;99.90
11242;DHT22;5678;52.370;9.006;2023-04-29T04:56:51;9.30;99.90
11242;DHT22;5678;52.370;9.006;2023-04-29T04:59:19;9.40;99.90
11242;DHT22;5678;52.370;9.006;2023-04-29T05:01:47;9.80;99.90
11242;DHT22;5678;52.370;9.006;2023-04-29T05:04:15;9.50;99.90
11242;DHT22;5678;52.370;9.006;2023-04-29T05:06:43;9.30;99.90
11242;DHT22;5678;52.370;9.006;2023-04-29T05:09:13;9.30;99.90
11242;DHT22;5678;52.370;9.006;2023-04-29T05:11:41;9.40;99.90
11242;DHT22;5678;52.370;9.006;2023-04-29T05:14:09;9.60;99.90
11242;DHT22;5678;52.370;9.006;2023-04-29T05:16:37;9.40;99.90
11242;DHT22;5678;52.370;9.006;2023-04-29T05:19:05;9.60;99.90
11242;DHT22;5678;52.370;9.006;2023-04-29T05:21:35;9.50;99.90
11242;DHT22;5678;52.370;9.006;2023-04-29T05:24:03;9.40;99.90
11242;DHT22;5678;52.370;9.006;2023-04-29T05:26:33;9.60;99.90
11242;DHT22;5678;52.370;9.006;2023-04-29T05:29:01;9.50;99.90
11242;DHT22;5678;52.370;9.006;2023-04-29T05:31:29;9.60;99.90
11242;DHT22;5678;52.370;9.006;2023-04-29T05:33:57;9.50;99.90
11242;DHT22;5678;52.370;9.006;2023-04-29T05:36:24;9.40;99.90
11242;DHT22;5678;52.370;9.006;2023-04-29T05:38:53;9.40;99.90
11242;DHT22;5678;52.370;9.006;2023-04-29T05:41:21;9.40;99.90
11242;DHT22;5678;52.370;9.006;2023-04-29T05:43:51;11.20;99.90
11242;DHT22;5678;52.370;9.006;2023-04-29T05:46:19;9.40;99.90
11242;DHT22;5678;52.370;9.006;2023-04-29T05:48:48;9.40;99.90
11242;DHT22;5678;52.370;9.006;2023-04-29T05:51:16;9.40;99.90
11242;DHT22;5678;52.370;9.006;2023-04-29T05:53:44;9.50;99.90
11242;DHT22;5678;52.370;9.006;2023-04-29T05:56:12;9.40;99.90
11242;DHT22;5678;52.370;9.006;2023-04-29T05:58:40;9.50;99.90
11242;DHT22;5678;52.370;9.006;2023-04-29T06:01:09;9.50;99.90
11242;DHT22;5678;52.370;9.006;2023-04-29T06:03:37;9.40;99.90
11242;DHT22;5678;52.370;9.006;2023-04-29T06:06:05;9.40;99.90
11242;DHT22;5678;52.370;9.006;2023-04-29T06:08:34;9.40;99.90
11242;DHT22;5678;52.370;9.006;2023-04-29T06:11:02;9.40;99.90
11242;DHT22;5678;52.370;9.006;2023-04-29T06:13:31;9.30;99.90
11242;DHT22;5678;52.370;9.006;2023-04-29T06:15:59;9.50;99.90
11242;DHT22;5678;52.370;9.006;2023-04-29T06:18:29;9.40;99.90
11242;DHT22;5678;52.370;9.006;2023-04-29T06:20:57;10.70;99.90
11242;DHT22;5678;52.370;9.006;2023-04-29T06:23:25;9.40;99.90
11242;DHT22;5678;52.370;9.006;2023-04-29T06:25:52;9.50;99.90
11242;DHT22;5678;52.370;9.006;2023-04-29T06:28:20;9.50;99.90
11242;DHT22;5678;52.370;9.006;2023-04-29T06:30:49;9.60;99.90
11242;DHT22;5678;52.370;9.006;2023-04-29T06:33:17;9.60;99.90
11242;DHT22;5678;52.370;9.006;2023-04-29T06:35:46;9.50;99.90
11242;DHT22;5678;52.370;9.006;2023-04-29T06:38:14;9.40;99.90
11242;DHT22;5678;52.370;9.006;2023-04-29T06:40:41;9.60;99.90
11242;DHT22;5678;52.370;9.006;2023-04-29T06:43:09;9.60;99.90
11242;DHT22;5678;52.370;9.006;2023-04-29T06:45:37;9.50;99.90
11242;DHT22;5678;52.370;9.006;2023-04-29T06:48:05;9.60;99.90
11242;DHT22;5678;52.370;9.006;2023-04-29T06:50:33;9.50;99.90
11242;DHT22;5678;52.370;9.006;2023-04-29T06:53:03;9.60;99.90
11242;DHT22;5678;52.370;9.006;2023-04-29T06:55:31;9.50;99.90
11242;DHT22;5678;52.370;9.006;2023-04-29T06:57:59;9.60;99.90
11242;DHT22;5678;52.370;9.006;2023-04-29T07:00:27;9.70;99.90
11242;DHT22;5678;52.370;9.006;2023-04-29T07:02:54;9.90;99.90
11242;DHT22;5678;52.370;9.006;2023-04-29T07:05:22;9.80;99.90
11242;DHT22;5678;52.370;9.006;2023-04-29T07:07:50;9.70;99.90
11242;DHT22;5678;52.370;9.006;2023-04-29T07:10:20;9.90;76.70
11242;DHT22;5678;52.370;9.006;2023-04-29T07:12:47;9.80;95.60
11242;DHT22;5678;52.370;9.006;2023-04-29T07:15:16;10.10;53.70
11242;DHT22;5678;52.370;9.006;2023-04-29T07:17:44;10.20;76.70
11242;DHT22;5678;52.370;9.006;2023-04-29T07:20:12;10.90;85.80
11242;DHT22;5678;52.370;9.006;2023-04-29T07:22:40;10.40;16.30
11242;DHT22;5678;52.370;9.006;2023-04-29T07:25:08;10.20;1.00
11242;DHT22;5678;52.370;9.006;2023-04-29T07:27:38;10.80;1.00
11242;DHT22;5678;52.370;9.006;2023-04-29T07:30:06;10.50;1.00
11242;DHT22;5678;52.370;9.006;2023-04-29T07:32:34;10.20;11.60
11242;DHT22;5678;52.370;9.006;2023-04-29T07:35:03;10.20;1.00
11242;DHT22;5678;52.370;9.006;2023-04-29T07:37:31;10.30;1.00
11242;DHT22;5678;52.370;9.006;2023-04-29T07:39:59;10.40;35.00
11242;DHT22;5678;52.370;9.006;2023-04-29T07:42:27;10.40;3.10
11242;DHT22;5678;52.370;9.006;2023-04-29T07:44:56;10.40;1.00
11242;DHT22;5678;52.370;9.006;2023-04-29T07:47:24;10.80;1.00
11242;DHT22;5678;52.370;9.006;2023-04-29T07:49:52;10.80;1.00
11242;DHT22;5678;52.370;9.006;2023-04-29T07:52:20;10.90;1.00
11242;DHT22;5678;52.370;9.006;2023-04-29T07:54:48;11.10;1.00
11242;DHT22;5678;52.370;9.006;2023-04-29T07:57:16;11.30;1.00
11242;DHT22;5678;52.370;9.006;2023-04-29T07:59:44;11.40;1.00
11242;DHT22;5678;52.370;9.006;2023-04-29T08:02:14;11.30;1.00
11242;DHT22;5678;52.370;9.006;2023-04-29T08:04:42;11.50;1.00
11242;DHT22;5678;52.370;9.006;2023-04-29T08:07:10;11.60;1.00
11242;DHT22;5678;52.370;9.006;2023-04-29T08:09:38;11.60;1.00
11242;DHT22;5678;52.370;9.006;2023-04-29T08:12:07;11.70;1.00
11242;DHT22;5678;52.370;9.006;2023-04-29T08:14:35;11.80;1.00
11242;DHT22;5678;52.370;9.006;2023-04-29T08:17:03;11.80;1.00
11242;DHT22;5678;52.370;9.006;2023-04-29T08:19:32;11.70;1.00
11242;DHT22;5678;52.370;9.006;2023-04-29T08:22:00;12.60;1.00
11242;DHT22;5678;52.370;9.006;2023-04-29T08:24:29;12.20;99.90
11242;DHT22;5678;52.370;9.006;2023-04-29T08:26:59;12.00;1.00
11242;DHT22;5678;52.370;9.006;2023-04-29T08:29:29;12.10;1.00
11242;DHT22;5678;52.370;9.006;2023-04-29T08:31:58;12.50;1.00
11242;DHT22;5678;52.370;9.006;2023-04-29T08:34:26;13.40;99.90
11242;DHT22;5678;52.370;9.006;2023-04-29T08:36:56;13.70;99.90
11242;DHT22;5678;52.370;9.006;2023-04-29T08:39:24;13.50;99.90
11242;DHT22;5678;52.370;9.006;2023-04-29T08:41:52;13.70;99.90
11242;DHT22;5678;52.370;9.006;2023-04-29T08:44:22;14.00;99.90
11242;DHT22;5678;52.370;9.006;2023-04-29T08:46:50;15.20;1.00
11242;DHT22;5678;52.370;9.006;2023-04-29T08:49:19;15.00;1.00
11242;DHT22;5678;52.370;9.006;2023-04-29T08:51:48;14.60;81.60
11242;DHT22;5678;52.370;9.006;2023-04-29T08:54:18;15.10;1.00
11242;DHT22;5678;52.370;9.006;2023-04-29T08:56:46;15.00;99.90
11242;DHT22;5678;52.370;9.006;2023-04-29T08:59:14;15.60;66.50
11242;DHT22;5678;52.370;9.006;2023-04-29T09:01:46;14.90;1.00
11242;DHT22;5678;52.370;9.006;2023-04-29T09:04:27;15.10;1.00
11242;DHT22;5678;52.370;9.006;2023-04-29T09:06:57;14.70;99.90
11242;DHT22;5678;52.370;9.006;2023-04-29T09:09:27;15.30;1.00
11242;DHT22;5678;52.370;9.006;2023-04-29T09:11:55;16.20;1.00
11242;DHT22;5678;52.370;9.006;2023-04-29T09:14:24;14.90;1.00
11242;DHT22;5678;52.370;9.006;2023-04-29T09:16:51;15.10;1.00
11242;DHT22;5678;52.370;9.006;2023-04-29T09:19:30;15.00;1.00
11242;DHT22;5678;52.370;9.006;2023-04-29T09:21:59;14.60;1.00
11242;DHT22;5678;52.370;9.006;2023-04-29T09:24:29;14.80;1.00
11242;DHT22;5678;52.370;9.006;2023-04-29T09:26:58;14.60;1.00
11242;DHT22;5678;52.370;9.006;2023-04-29T09:29:28;14.10;1.00
11242;DHT22;5678;52.370;9.006;2023-04-29T09:31:57;13.90;1.00
11242;DHT22;5678;52.370;9.006;2023-04-29T09:34:30;15.20;1.00
11242;DHT22;5678;52.370;9.006;2023-04-29T09:36:59;14.20;99.90
11242;DHT22;5678;52.370;9.006;2023-04-29T09:39:37;13.90;1.00
11242;DHT22;5678;52.370;9.006;2023-04-29T09:42:05;13.80;99.90
11242;DHT22;5678;52.370;9.006;2023-04-29T09:44:35;13.90;1.00
11242;DHT22;5678;52.370;9.006;2023-04-29T09:47:04;14.00;48.60
11242;DHT22;5678;52.370;9.006;2023-04-29T09:49:34;13.70;1.00
11242;DHT22;5678;52.370;9.006;2023-04-29T09:52:05;14.10;99.90
11242;DHT22;5678;52.370;9.006;2023-04-29T09:54:35;14.20;1.00
11242;DHT22;5678;52.370;9.006;2023-04-29T09:57:05;14.50;99.90
11242;DHT22;5678;52.370;9.006;2023-04-29T09:59:34;14.50;1.00
11242;DHT22;5678;52.370;9.006;2023-04-29T10:02:09;14.80;1.00
11242;DHT22;5678;52.370;9.006;2023-04-29T10:04:42;14.70;1.00
11242;DHT22;5678;52.370;9.006;2023-04-29T10:07:14;14.40;1.00
11242;DHT22;5678;52.370;9.006;2023-04-29T10:09:45;14.80;1.00
11242;DHT22;5678;52.370;9.006;2023-04-29T10:12:15;15.00;1.00
11242;DHT22;5678;52.370;9.006;2023-04-29T10:14:47;15.40;1.00
11242;DHT22;5678;52.370;9.006;2023-04-29T10:17:21;15.60;99.90
11242;DHT22;5678;52.370;9.006;2023-04-29T10:19:56;15.90;52.20
11242;DHT22;5678;52.370;9.006;2023-04-29T10:22:29;15.80;1.00
11242;DHT22;5678;52.370;9.006;2023-04-29T10:25:02;16.00;1.00
11242;DHT22;5678;52.370;9.006;2023-04-29T10:27:33;16.00;1.00
11242;DHT22;5678;52.370;9.006;2023-04-29T10:30:02;15.90;1.00
11242;DHT22;5678;52.370;9.006;2023-04-29T10:32:32;16.00;1.00
11242;DHT22;5678;52.370;9.006;2023-04-29T10:35:17;16.10;1.00
11242;DHT22;5678;52.370;9.006;2023-04-29T10:37:47;16.30;1.00
11242;DHT22;5678;52.370;9.006;2023-04-29T10:40:21;15.90;1.00
11242;DHT22;5678;52.370;9.006;2023-04-29T10:42:52;16.10;1.00
11242;DHT22;5678;52.370;9.006;2023-04-29T10:45:24;15.70;1.00
11242;DHT22;5678;52.370;9.006;2023-04-29T10:48:13;15.60;1.00
11242;DHT22;5678;52.370;9.006;2023-04-29T10:51:00;15.80;1.00
11242;DHT22;5678;52.370;9.006;2023-04-29T10:53:31;15.70;1.00
11242;DHT22;5678;52.370;9.006;2023-04-29T10:56:07;15.80;1.00
11242;DHT22;5678;52.370;9.006;2023-04-29T10:58:39;15.80;1.00
11242;DHT22;5678;52.370;9.006;2023-04-29T11:01:10;15.90;1.00
11242;DHT22;5678;52.370;9.006;2023-04-29T11:03:53;15.70;1.00
11242;DHT22;5678;52.370;9.006;2023-04-29T11:06:38;15.60;1.00
11242;DHT22;5678;52.370;9.006;2023-04-29T11:09:10;15.90;1.00
11242;DHT22;5678;52.370;9.006;2023-04-29T11:11:55;15.40;1.00
11242;DHT22;5678;52.370;9.006;2023-04-29T11:14:25;15.30;1.00
11242;DHT22;5678;52.370;9.006;2023-04-29T11:16:56;16.10;1.00
11242;DHT22;5678;52.370;9.006;2023-04-29T11:19:29;15.70;1.00
11242;DHT22;5678;52.370;9.006;2023-04-29T11:22:12;14.80;1.00
11242;DHT22;5678;52.370;9.006;2023-04-29T11:24:51;14.80;1.00
11242;DHT22;5678;52.370;9.006;2023-04-29T11:27:22;14.50;1.00
11242;DHT22;5678;52.370;9.006;2023-04-29T11:29:52;14.30;1.00
11242;DHT22;5678;52.370;9.006;2023-04-29T11:32:24;14.20;1.00
11242;DHT22;5678;52.370;9.006;2023-04-29T11:34:53;14.00;1.00
11242;DHT22;5678;52.370;9.006;2023-04-29T11:37:23;14.30;1.00
11242;DHT22;5678;52.370;9.006;2023-04-29T11:39:57;14.50;1.00
11242;DHT22;5678;52.370;9.006;2023-04-29T11:42:27;14.50;1.00
11242;DHT22;5678;52.370;9.006;2023-04-29T11:44:55;14.80;1.00
11242;DHT22;5678;52.370;9.006;2023-04-29T11:47:26;14.70;1.00
11242;DHT22;5678;52.370;9.006;2023-04-29T11:50:01;14.90;1.00
11242;DHT22;5678;52.370;9.006;2023-04-29T11:52:29;14.80;1.00
11242;DHT22;5678;52.370;9.006;2023-04-29T11:54:57;14.90;1.00
11242;DHT22;5678;52.370;9.006;2023-04-29T11:57:27;14.90;1.00
11242;DHT22;5678;52.370;9.006;2023-04-29T11:59:56;15.50;1.00
11242;DHT22;5678;52.370;9.006;2023-04-29T12:02:28;15.40;1.00
11242;DHT22;5678;52.370;9.006;2023-04-29T12:04:57;15.80;1.00
11242;DHT22;5678;52.370;9.006;2023-04-29T12:07:27;16.10;1.00
11242;DHT22;5678;52.370;9.006;2023-04-29T12:09:55;15.70;1.00
11242;DHT22;5678;52.370;9.006;2023-04-29T12:12:24;15.80;1.00
11242;DHT22;5678;52.370;9.006;2023-04-29T12:14:54;16.00;1.00
11242;DHT22;5678;52.370;9.006;2023-04-29T12:17:23;16.40;1.00
11242;DHT22;5678;52.370;9.006;2023-04-29T12:19:51;15.80;1.00
11242;DHT22;5678;52.370;9.006;2023-04-29T12:22:19;16.10;1.00
11242;DHT22;5678;52.370;9.006;2023-04-29T12:24:47;16.10;1.00
11242;DHT22;5678;52.370;9.006;2023-04-29T12:27:16;16.30;1.00
11242;DHT22;5678;52.370;9.006;2023-04-29T12:29:45;15.80;1.00
11242;DHT22;5678;52.370;9.006;2023-04-29T12:32:17;15.90;1.00
11242;DHT22;5678;52.370;9.006;2023-04-29T12:34:49;15.40;1.00
11242;DHT22;5678;52.370;9.006;2023-04-29T12:37:20;15.40;1.00
11242;DHT22;5678;52.370;9.006;2023-04-29T12:39:48;14.90;1.00
11242;DHT22;5678;52.370;9.006;2023-04-29T12:42:17;15.10;1.00
11242;DHT22;5678;52.370;9.006;2023-04-29T12:44:45;15.60;1.00
11242;DHT22;5678;52.370;9.006;2023-04-29T12:47:14;15.40;1.00
11242;DHT22;5678;52.370;9.006;2023-04-29T12:49:45;15.80;1.00
11242;DHT22;5678;52.370;9.006;2023-04-29T12:52:13;15.90;1.00
11242;DHT22;5678;52.370;9.006;2023-04-29T12:54:41;15.80;1.00
11242;DHT22;5678;52.370;9.006;2023-04-29T12:57:10;15.80;1.00
11242;DHT22;5678;52.370;9.006;2023-04-29T12:59:38;16.10;1.00
11242;DHT22;5678;52.370;9.006;2023-04-29T13:02:07;15.80;1.00
11242;DHT22;5678;52.370;9.006;2023-04-29T13:04:35;15.50;1.00
11242;DHT22;5678;52.370;9.006;2023-04-29T13:07:06;15.90;1.00
11242;DHT22;5678;52.370;9.006;2023-04-29T13:09:34;15.40;1.00
11242;DHT22;5678;52.370;9.006;2023-04-29T13:12:04;15.30;1.00
11242;DHT22;5678;52.370;9.006;2023-04-29T13:14:34;15.30;1.00
11242;DHT22;5678;52.370;9.006;2023-04-29T13:17:02;15.40;1.00
11242;DHT22;5678;52.370;9.006;2023-04-29T13:19:30;15.30;1.00
11242;DHT22;5678;52.370;9.006;2023-04-29T13:22:18;16.00;1.00
11242;DHT22;5678;52.370;9.006;2023-04-29T13:24:46;16.10;1.00
11242;DHT22;5678;52.370;9.006;2023-04-29T13:27:14;16.20;1.00
11242;DHT22;5678;52.370;9.006;2023-04-29T13:29:42;15.90;1.00
11242;DHT22;5678;52.370;9.006;2023-04-29T13:32:10;15.90;1.00
11242;DHT22;5678;52.370;9.006;2023-04-29T13:34:38;16.20;1.00
11242;DHT22;5678;52.370;9.006;2023-04-29T13:37:09;16.70;1.00
11242;DHT22;5678;52.370;9.006;2023-04-29T13:39:38;16.40;1.00
11242;DHT22;5678;52.370;9.006;2023-04-29T13:42:07;16.70;1.00
11242;DHT22;5678;52.370;9.006;2023-04-29T13:44:36;16.90;99.90
11242;DHT22;5678;52.370;9.006;2023-04-29T13:47:23;17.00;99.90
11242;DHT22;5678;52.370;9.006;2023-04-29T13:49:57;16.90;99.90
11242;DHT22;5678;52.370;9.006;2023-04-29T13:52:44;17.00;99.90
11242;DHT22;5678;52.370;9.006;2023-04-29T13:55:17;16.50;99.90
11242;DHT22;5678;52.370;9.006;2023-04-29T13:57:49;16.60;99.90
11242;DHT22;5678;52.370;9.006;2023-04-29T14:00:38;16.50;99.90
11242;DHT22;5678;52.370;9.006;2023-04-29T14:03:09;15.90;99.90
11242;DHT22;5678;52.370;9.006;2023-04-29T14:05:37;15.50;99.90
11242;DHT22;5678;52.370;9.006;2023-04-29T14:08:06;16.10;99.90
11242;DHT22;5678;52.370;9.006;2023-04-29T14:10:35;15.80;99.90
11242;DHT22;5678;52.370;9.006;2023-04-29T14:13:03;16.20;99.90
11242;DHT22;5678;52.370;9.006;2023-04-29T14:15:31;16.20;99.90
11242;DHT22;5678;52.370;9.006;2023-04-29T14:17:59;15.50;99.90
11242;DHT22;5678;52.370;9.006;2023-04-29T14:20:27;15.40;99.90
11242;DHT22;5678;52.370;9.006;2023-04-29T14:22:55;15.70;99.90
11242;DHT22;5678;52.370;9.006;2023-04-29T14:25:23;16.50;99.90
11242;DHT22;5678;52.370;9.006;2023-04-29T14:27:55;16.80;99.90
11242;DHT22;5678;52.370;9.006;2023-04-29T14:30:23;16.70;99.90
11242;DHT22;5678;52.370;9.006;2023-04-29T14:32:51;17.30;99.90
11242;DHT22;5678;52.370;9.006;2023-04-29T14:35:19;16.90;99.90
11242;DHT22;5678;52.370;9.006;2023-04-29T14:37:47;16.70;99.90
11242;DHT22;5678;52.370;9.006;2023-04-29T14:40:16;17.30;99.90
11242;DHT22;5678;52.370;9.006;2023-04-29T14:42:44;16.50;99.90
11242;DHT22;5678;52.370;9.006;2023-04-29T14:45:13;17.00;99.90
11242;DHT22;5678;52.370;9.006;2023-04-29T14:47:41;16.70;99.90
11242;DHT22;5678;52.370;9.006;2023-04-29T14:50:09;17.10;99.90
11242;DHT22;5678;52.370;9.006;2023-04-29T14:52:37;16.80;99.90
11242;DHT22;5678;52.370;9.006;2023-04-29T14:55:05;17.10;99.90
11242;DHT22;5678;52.370;9.006;2023-04-29T14:57:33;16.70;99.90
11242;DHT22;5678;52.370;9.006;2023-04-29T15:00:01;16.90;99.90
11242;DHT22;5678;52.370;9.006;2023-04-29T15:02:30;17.00;99.90
11242;DHT22;5678;52.370;9.006;2023-04-29T15:04:59;17.00;99.90
11242;DHT22;5678;52.370;9.006;2023-04-29T15:07:29;17.30;99.90
11242;DHT22;5678;52.370;9.006;2023-04-29T15:09:58;17.10;99.90
11242;DHT22;5678;52.370;9.006;2023-04-29T15:12:26;16.70;99.90
11242;DHT22;5678;52.370;9.006;2023-04-29T15:14:54;16.60;99.90
11242;DHT22;5678;52.370;9.006;2023-04-29T15:17:22;16.40;99.90
11242;DHT22;5678;52.370;9.006;2023-04-29T15:19:51;16.70;99.90
11242;DHT22;5678;52.370;9.006;2023-04-29T15:22:19;16.10;99.90
11242;DHT22;5678;52.370;9.006;2023-04-29T15:24:47;16.30;99.90
11242;DHT22;5678;52.370;9.006;2023-04-29T15:27:15;15.80;99.90
11242;DHT22;5678;52.370;9.006;2023-04-29T15:29:43;15.70;99.90
11242;DHT22;5678;52.370;9.006;2023-04-29T15:32:11;15.60;99.90
11242;DHT22;5678;52.370;9.006;2023-04-29T15:34:38;15.60;99.90
11242;DHT22;5678;52.370;9.006;2023-04-29T15:37:08;15.80;99.90
11242;DHT22;5678;52.370;9.006;2023-04-29T15:39:36;16.00;99.90
11242;DHT22;5678;52.370;9.006;2023-04-29T15:42:03;16.20;99.90
11242;DHT22;5678;52.370;9.006;2023-04-29T15:44:32;15.50;99.90
11242;DHT22;5678;52.370;9.006;2023-04-29T15:46:59;15.70;99.90
11242;DHT22;5678;52.370;9.006;2023-04-29T15:49:27;15.60;99.90
11242;DHT22;5678;52.370;9.006;2023-04-29T15:51:56;15.00;99.90
11242;DHT22;5678;52.370;9.006;2023-04-29T15:54:25;15.90;99.90
11242;DHT22;5678;52.370;9.006;2023-04-29T15:56:54;15.50;99.90
11242;DHT22;5678;52.370;9.006;2023-04-29T15:59:22;15.30;99.90
11242;DHT22;5678;52.370;9.006;2023-04-29T16:01:51;15.70;99.90
11242;DHT22;5678;52.370;9.006;2023-04-29T16:04:18;15.20;99.90
11242;DHT22;5678;52.370;9.006;2023-04-29T16:06:47;15.20;99.90
11242;DHT22;5678;52.370;9.006;2023-04-29T16:09:15;15.60;99.90